This is the latest recevied weather packets stored in our database for station/object W0AKO. If no packets are shown the sender has not sent any weather packets the latest 10 day(s).
| Time | Temp. | Humidity | Pressure | Rain* | Wind** | Luminosity | Snow |
|---|---|---|---|---|---|---|---|
| 1777757477 | 31.67° C | 10% | 1016.2 hPa | 0 mm | - | 729 W/m² | - |
| 1777757176 | 31.67° C | 10% | 1016 hPa | 0 mm | - | 757 W/m² | - |
| 1777756874 | 31.11° C | 10% | 1016.2 hPa | 0 mm | - | 757 W/m² | - |
| 1777756569 | 30° C | 10% | 1016.4 hPa | 0 mm | - | 788 W/m² | - |
| 1777756266 | 29.44° C | 10% | 1016.6 hPa | 0 mm | - | 791 W/m² | - |
| 1777755963 | 30° C | 10% | 1016.6 hPa | 0 mm | - | 807 W/m² | - |
| 1777755660 | 29.44° C | 10% | 1016.6 hPa | 0 mm | - | 778 W/m² | - |
| 1777755356 | 30° C | 10% | 1016.7 hPa | 0 mm | - | 784 W/m² | - |
| 1777755054 | 29.44° C | 10% | 1016.6 hPa | 0 mm | - | 777 W/m² | - |
| 1777754750 | 28.33° C | 10% | 1016.4 hPa | 0 mm | - | 769 W/m² | - |
| 1777754448 | 29.44° C | 10% | 1016.9 hPa | 0 mm | - | 766 W/m² | - |
| 1777754145 | 28.89° C | 10% | 1017 hPa | 0 mm | - | 744 W/m² | - |
| 1777753842 | 27.78° C | 10% | 1017 hPa | 0 mm | - | 766 W/m² | - |
| 1777753538 | 29.44° C | 10% | 1017.5 hPa | 0 mm | - | 757 W/m² | - |
| 1777753236 | 28.33° C | 10% | 1017.5 hPa | 0 mm | - | 708 W/m² | - |
| 1777752932 | 28.89° C | 10% | 1017.6 hPa | 0 mm | - | 782 W/m² | - |
| 1777752629 | 28.33° C | 10% | 1017.3 hPa | 0 mm | - | 764 W/m² | - |
| 1777752325 | 28.89° C | 10% | 1017.8 hPa | 0 mm | - | 760 W/m² | - |
| 1777752023 | 27.78° C | 10% | 1017.8 hPa | 0 mm | - | 774 W/m² | - |
| 1777751720 | 27.22° C | 10% | 1018 hPa | 0 mm | - | 776 W/m² | - |
| 1777751416 | 27.22° C | 10% | 1017.9 hPa | 0 mm | - | 721 W/m² | - |
| 1777751113 | 27.22° C | 10% | 1018 hPa | 0 mm | - | 664 W/m² | - |
| 1777750809 | 27.22° C | 10% | 1018.1 hPa | 0 mm | - | 654 W/m² | - |
| 1777750507 | 26.67° C | 10% | 1018.3 hPa | 0 mm | - | 612 W/m² | - |
| 1777750203 | 27.22° C | 10% | 1018.4 hPa | 0 mm | - | 605 W/m² | - |
* Rain latest hour (hover to see other rain measurements)
** Current wind speed in m/s (hover to see current wind gust speed)